createdAt,value
2023-01-19T00:00:45.707Z,97371.06
2023-01-19T00:03:16.004Z,97372.19
2023-01-19T00:05:43.864Z,97377.06
2023-01-19T00:08:17.359Z,97383.19
2023-01-19T00:10:46.701Z,97384.00
2023-01-19T00:13:14.037Z,97381.13
2023-01-19T00:15:40.577Z,97373.38
2023-01-19T00:18:09.045Z,97373.81
2023-01-19T00:20:36.292Z,97383.19
2023-01-19T00:23:04.659Z,97380.44
2023-01-19T00:25:31.558Z,97384.66
2023-01-19T00:28:00.521Z,97386.78
2023-01-19T00:30:28.002Z,97387.56
2023-01-19T00:32:54.428Z,97389.78
2023-01-19T00:35:20.856Z,97391.34
2023-01-19T00:37:47.331Z,97392.00
2023-01-19T00:40:14.084Z,97398.38
2023-01-19T00:42:40.801Z,97393.00
2023-01-19T00:45:08.865Z,97395.75
2023-01-19T00:47:35.355Z,97401.31
2023-01-19T00:50:01.841Z,97398.59
2023-01-19T00:52:28.423Z,97393.81
2023-01-19T00:54:54.881Z,97400.06
2023-01-19T00:57:21.314Z,97402.50
2023-01-19T00:59:47.764Z,97407.56
2023-01-19T01:02:14.518Z,97400.81
2023-01-19T01:04:41.100Z,97401.25
2023-01-19T01:07:07.557Z,97400.13
2023-01-19T01:09:34.030Z,97400.81
2023-01-19T01:12:00.531Z,97396.88
2023-01-19T01:14:27.102Z,97399.84
2023-01-19T01:16:53.638Z,97405.03
2023-01-19T01:19:21.368Z,97398.94
2023-01-19T01:21:47.836Z,97401.78
2023-01-19T01:24:14.283Z,97412.97
2023-01-19T01:26:40.708Z,97408.78
2023-01-19T01:29:08.362Z,97414.28
2023-01-19T01:31:35.170Z,97410.94
2023-01-19T01:34:01.659Z,97412.03
2023-01-19T01:36:31.775Z,97413.56
2023-01-19T01:38:58.349Z,97416.16
2023-01-19T01:41:26.670Z,97416.25
2023-01-19T01:44:01.660Z,97415.72
2023-01-19T01:46:31.085Z,97421.41
2023-01-19T01:49:07.515Z,97412.09
2023-01-19T01:51:53.090Z,97416.94
2023-01-19T01:54:21.632Z,97417.47
2023-01-19T01:56:51.249Z,97424.59
2023-01-19T01:59:27.954Z,97429.63
2023-01-19T02:02:15.585Z,97428.97
2023-01-19T02:04:49.983Z,97435.75
2023-01-19T02:07:42.576Z,97429.75
2023-01-19T02:10:27.821Z,97436.06
2023-01-19T02:13:13.162Z,97435.91
2023-01-19T02:15:43.657Z,97441.41
2023-01-19T02:18:10.832Z,97444.34
2023-01-19T02:20:40.398Z,97443.69
2023-01-19T02:23:15.695Z,97441.63
2023-01-19T02:25:42.900Z,97446.94
2023-01-19T02:28:10.311Z,97436.41
2023-01-19T02:30:39.973Z,97443.38
2023-01-19T02:33:07.126Z,97443.31
2023-01-19T02:35:36.163Z,97438.81
2023-01-19T02:38:03.761Z,97434.94
2023-01-19T02:40:30.806Z,97432.19
2023-01-19T02:43:00.859Z,97442.69
2023-01-19T02:45:27.932Z,97440.56
2023-01-19T02:47:54.515Z,97443.38
2023-01-19T02:50:50.532Z,97434.00
2023-01-19T02:53:47.521Z,97434.28
2023-01-19T02:56:32.510Z,97438.13
2023-01-19T02:59:11.018Z,97434.84
2023-01-19T03:01:44.818Z,97431.56
2023-01-19T03:04:39.353Z,97426.19
2023-01-19T03:07:05.709Z,97418.25
2023-01-19T03:10:02.460Z,97419.53
2023-01-19T03:12:53.436Z,97418.88
2023-01-19T03:15:30.650Z,97415.97
2023-01-19T03:18:00.360Z,97424.41
2023-01-19T03:20:28.794Z,97418.81
2023-01-19T03:23:05.328Z,97418.81
2023-01-19T03:25:37.183Z,97422.25
2023-01-19T03:28:04.683Z,97415.03
2023-01-19T03:30:36.676Z,97420.28
2023-01-19T03:33:09.539Z,97423.53
2023-01-19T03:35:39.799Z,97417.28
2023-01-19T03:38:12.425Z,97418.25
2023-01-19T03:40:39.752Z,97422.84
2023-01-19T03:43:06.459Z,97421.88
2023-01-19T03:45:33.763Z,97424.97
2023-01-19T03:48:00.285Z,97418.88
2023-01-19T03:50:30.102Z,97417.41
2023-01-19T03:53:10.669Z,97426.72
2023-01-19T03:55:39.914Z,97423.59
2023-01-19T03:58:06.401Z,97422.97
2023-01-19T04:00:34.247Z,97421.88
2023-01-19T04:03:01.283Z,97428.22
2023-01-19T04:05:27.964Z,97426.53
2023-01-19T04:07:54.855Z,97419.09
2023-01-19T04:10:22.168Z,97423.59
2023-01-19T04:12:48.948Z,97422.03
2023-01-19T04:15:15.838Z,97421.22
2023-01-19T04:17:42.335Z,97420.66
2023-01-19T04:20:09.604Z,97419.22
2023-01-19T04:22:36.082Z,97425.91
2023-01-19T04:25:03.252Z,97423.25
2023-01-19T04:27:29.715Z,97416.28
2023-01-19T04:29:56.417Z,97417.50
2023-01-19T04:32:22.923Z,97416.88
2023-01-19T04:34:49.343Z,97413.25
2023-01-19T04:37:15.794Z,97412.66
2023-01-19T04:39:42.220Z,97410.63
2023-01-19T04:42:08.876Z,97413.16
2023-01-19T04:44:35.322Z,97414.50
2023-01-19T04:47:02.793Z,97414.28
2023-01-19T04:49:29.421Z,97417.97
2023-01-19T04:51:56.278Z,97412.09
2023-01-19T04:54:22.919Z,97415.59
2023-01-19T04:56:49.457Z,97416.97
2023-01-19T04:59:15.942Z,97413.94
2023-01-19T05:01:42.542Z,97424.53
2023-01-19T05:04:09.099Z,97423.38
2023-01-19T05:06:35.597Z,97428.06
2023-01-19T05:09:02.013Z,97435.34
2023-01-19T05:11:28.442Z,97433.91
2023-01-19T05:13:54.944Z,97440.03
2023-01-19T05:16:21.522Z,97435.94
2023-01-19T05:18:48.033Z,97433.97
2023-01-19T05:21:14.542Z,97435.94
2023-01-19T05:23:41.126Z,97434.44
2023-01-19T05:26:09.662Z,97437.22
2023-01-19T05:28:37.911Z,97438.06
2023-01-19T05:31:04.528Z,97431.69
2023-01-19T05:33:31.242Z,97441.28
2023-01-19T05:35:57.724Z,97434.50
2023-01-19T05:38:34.668Z,97437.84
2023-01-19T05:41:01.759Z,97432.91
2023-01-19T05:43:28.366Z,97432.44
2023-01-19T05:45:54.940Z,97439.38
2023-01-19T05:48:21.475Z,97440.88
2023-01-19T05:50:49.449Z,97439.72
2023-01-19T05:53:16.909Z,97446.88
2023-01-19T05:55:43.405Z,97453.50
2023-01-19T05:58:09.857Z,97451.16
2023-01-19T06:00:36.352Z,97453.75
2023-01-19T06:03:03.637Z,97455.56
2023-01-19T06:05:30.353Z,97457.41
2023-01-19T06:07:57.160Z,97455.22
2023-01-19T06:10:23.859Z,97463.31
2023-01-19T06:12:51.686Z,97454.09
2023-01-19T06:15:18.988Z,97462.41
2023-01-19T06:17:45.605Z,97461.69
2023-01-19T06:20:14.040Z,97459.38
2023-01-19T06:22:40.581Z,97469.06
2023-01-19T06:25:07.284Z,97467.78
2023-01-19T06:27:33.976Z,97467.13
2023-01-19T06:30:00.453Z,97474.09
2023-01-19T06:32:27.023Z,97473.38
2023-01-19T06:34:54.199Z,97474.25
2023-01-19T06:37:21.034Z,97476.59
2023-01-19T06:39:47.583Z,97471.41
2023-01-19T06:42:14.361Z,97480.34
2023-01-19T06:44:47.168Z,97486.88
2023-01-19T06:47:16.307Z,97497.72
2023-01-19T06:49:43.172Z,97502.72
2023-01-19T06:52:15.937Z,97506.81
2023-01-19T06:54:43.525Z,97512.97
2023-01-19T06:57:13.106Z,97512.81
2023-01-19T06:59:39.710Z,97510.22
2023-01-19T07:02:26.105Z,97513.69
2023-01-19T07:04:52.889Z,97525.84
2023-01-19T07:07:19.329Z,97524.91
2023-01-19T07:09:45.721Z,97518.53
2023-01-19T07:12:12.187Z,97531.25
2023-01-19T07:14:38.883Z,97530.88
2023-01-19T07:17:05.458Z,97534.19
2023-01-19T07:19:31.996Z,97533.91
2023-01-19T07:21:59.098Z,97531.91
2023-01-19T07:24:25.550Z,97523.25
2023-01-19T07:26:51.977Z,97538.59
2023-01-19T07:29:18.441Z,97537.91
2023-01-19T07:31:45.011Z,97534.69
2023-01-19T07:34:12.584Z,97520.25
2023-01-19T07:36:39.084Z,97542.19
2023-01-19T07:39:05.611Z,97544.19
2023-01-19T07:41:32.479Z,97556.19
2023-01-19T07:43:59.026Z,97553.28
2023-01-19T07:46:25.616Z,97556.06
2023-01-19T07:48:52.167Z,97562.00
2023-01-19T07:51:18.812Z,97555.88
2023-01-19T07:53:45.993Z,97567.44
2023-01-19T07:56:12.582Z,97561.00
2023-01-19T07:58:39.530Z,97574.09
2023-01-19T08:01:11.216Z,97575.22
2023-01-19T08:03:38.088Z,97568.63
2023-01-19T08:06:05.500Z,97575.25
2023-01-19T08:08:33.170Z,97579.53
2023-01-19T08:11:00.236Z,97581.53
2023-01-19T08:13:26.915Z,97583.41
2023-01-19T08:15:54.076Z,97578.88
2023-01-19T08:18:21.026Z,97582.59
2023-01-19T08:20:47.624Z,97569.09
2023-01-19T08:23:14.047Z,97575.06
2023-01-19T08:25:44.369Z,97578.84
2023-01-19T08:28:13.544Z,97572.25
2023-01-19T08:30:40.769Z,97570.47
2023-01-19T08:33:08.271Z,97560.41
2023-01-19T08:35:40.186Z,97556.78
2023-01-19T08:38:09.131Z,97574.75
2023-01-19T08:40:38.115Z,97568.06
2023-01-19T08:43:07.875Z,97574.44
2023-01-19T08:45:41.399Z,97572.81
2023-01-19T08:48:08.271Z,97574.06
2023-01-19T08:50:34.946Z,97566.88
2023-01-19T08:53:04.580Z,97574.50
2023-01-19T08:55:31.171Z,97566.72
2023-01-19T08:57:59.909Z,97572.03
2023-01-19T09:00:27.127Z,97572.00
2023-01-19T09:02:54.202Z,97571.56
2023-01-19T09:05:20.669Z,97577.69
2023-01-19T09:07:48.065Z,97572.84
2023-01-19T09:10:15.516Z,97567.16
2023-01-19T09:12:43.468Z,97575.44
2023-01-19T09:15:10.860Z,97575.38
2023-01-19T09:17:37.455Z,97579.72
2023-01-19T09:20:05.904Z,97590.94
2023-01-19T09:22:33.236Z,97585.31
2023-01-19T09:25:00.279Z,97585.19
2023-01-19T09:27:26.725Z,97588.25
2023-01-19T09:29:54.016Z,97578.63
2023-01-19T09:32:21.590Z,97586.09
2023-01-19T09:34:48.082Z,97585.16
2023-01-19T09:37:16.081Z,97580.75
2023-01-19T09:39:42.621Z,97593.63
2023-01-19T09:42:18.443Z,97589.09
2023-01-19T09:44:47.876Z,97588.47
2023-01-19T09:47:20.097Z,97598.72
2023-01-19T09:49:52.544Z,97591.09
2023-01-19T09:52:20.551Z,97599.72
2023-01-19T09:54:54.663Z,97607.34
2023-01-19T09:57:23.042Z,97600.75
2023-01-19T09:59:51.371Z,97611.34
2023-01-19T10:02:29.851Z,97609.13
2023-01-19T10:05:05.356Z,97611.09
2023-01-19T10:07:53.042Z,97609.13
2023-01-19T10:10:25.972Z,97606.81
2023-01-19T10:13:24.898Z,97610.59
2023-01-19T10:16:09.965Z,97604.38
2023-01-19T10:18:48.511Z,97605.53
2023-01-19T10:21:43.459Z,97612.72
2023-01-19T10:24:25.353Z,97607.03
2023-01-19T10:26:54.956Z,97611.25
2023-01-19T10:29:48.005Z,97614.19
2023-01-19T10:32:30.839Z,97615.94
2023-01-19T10:34:59.475Z,97619.38
2023-01-19T10:37:36.986Z,97616.63
2023-01-19T10:40:12.670Z,97620.84
2023-01-19T10:42:41.168Z,97618.56
2023-01-19T10:45:19.273Z,97620.22
2023-01-19T10:47:47.438Z,97610.63
2023-01-19T10:50:43.610Z,97613.38
2023-01-19T10:53:21.962Z,97606.22
2023-01-19T10:56:08.660Z,97608.50
2023-01-19T10:58:35.158Z,97607.50
2023-01-19T11:01:18.437Z,97615.00
2023-01-19T11:03:45.517Z,97608.00
2023-01-19T11:06:18.715Z,97612.22
2023-01-19T11:08:47.256Z,97611.09
2023-01-19T11:11:14.300Z,97604.59
2023-01-19T11:13:42.463Z,97608.34
2023-01-19T11:16:29.317Z,97612.72
2023-01-19T11:18:57.392Z,97603.28
2023-01-19T11:21:27.173Z,97604.25
2023-01-19T11:23:56.335Z,97600.19
2023-01-19T11:26:44.219Z,97612.41
2023-01-19T11:29:22.925Z,97608.16
2023-01-19T11:31:50.662Z,97597.72
2023-01-19T11:34:34.747Z,97603.78
2023-01-19T11:37:03.967Z,97598.69
2023-01-19T11:39:44.835Z,97589.81
2023-01-19T11:42:13.033Z,97588.84
2023-01-19T11:44:46.728Z,97581.34
2023-01-19T11:47:27.203Z,97583.72
2023-01-19T11:50:15.236Z,97585.19
2023-01-19T11:52:59.019Z,97581.28
2023-01-19T11:55:36.349Z,97573.72
2023-01-19T11:58:04.735Z,97569.31
2023-01-19T12:00:42.825Z,97564.38
2023-01-19T12:03:20.618Z,97559.34
2023-01-19T12:05:51.006Z,97565.94
2023-01-19T12:08:25.260Z,97567.84
2023-01-19T12:10:55.474Z,97563.19
2023-01-19T12:13:24.474Z,97561.25
2023-01-19T12:15:57.833Z,97562.25
2023-01-19T12:18:30.124Z,97566.81
2023-01-19T12:20:56.999Z,97561.19
2023-01-19T12:23:34.029Z,97558.97
2023-01-19T12:26:27.838Z,97559.88
2023-01-19T12:28:59.037Z,97553.75
2023-01-19T12:31:25.646Z,97558.03
2023-01-19T12:33:52.848Z,97556.72
2023-01-19T12:36:35.447Z,97568.56
2023-01-19T12:39:06.429Z,97569.28
2023-01-19T12:41:41.041Z,97563.47
2023-01-19T12:44:19.464Z,97559.94
2023-01-19T12:46:54.526Z,97560.09
2023-01-19T12:49:23.926Z,97555.72
2023-01-19T12:51:53.105Z,97565.81
2023-01-19T12:54:31.489Z,97552.56
2023-01-19T12:57:14.246Z,97556.31
2023-01-19T12:59:41.581Z,97559.69
2023-01-19T13:02:20.375Z,97557.25
2023-01-19T13:05:19.107Z,97557.13
2023-01-19T13:08:11.292Z,97547.75
2023-01-19T13:10:59.433Z,97556.66
2023-01-19T13:13:33.366Z,97553.66
2023-01-19T13:16:19.936Z,97546.72
2023-01-19T13:19:06.405Z,97548.44
2023-01-19T13:21:39.578Z,97557.50
2023-01-19T13:24:08.692Z,97557.19
2023-01-19T13:26:42.275Z,97555.81
2023-01-19T13:29:15.695Z,97561.06
2023-01-19T13:31:44.642Z,97558.44
2023-01-19T13:34:21.227Z,97554.16
2023-01-19T13:36:52.766Z,97554.25
2023-01-19T13:39:37.511Z,97552.38
2023-01-19T13:42:08.908Z,97556.81
2023-01-19T13:44:43.806Z,97551.47
2023-01-19T13:47:18.965Z,97552.25
2023-01-19T13:49:48.498Z,97559.72
2023-01-19T13:52:35.224Z,97564.22
2023-01-19T13:55:04.228Z,97562.59
2023-01-19T13:57:43.108Z,97555.59
2023-01-19T14:00:11.771Z,97562.41
2023-01-19T14:02:39.514Z,97561.94
2023-01-19T14:05:20.769Z,97568.69
2023-01-19T14:07:47.830Z,97563.13
2023-01-19T14:10:16.682Z,97571.22
2023-01-19T14:12:58.692Z,97574.72
2023-01-19T14:15:25.948Z,97576.69
2023-01-19T14:18:12.402Z,97571.44
2023-01-19T14:20:39.098Z,97572.91
2023-01-19T14:23:06.686Z,97579.28
2023-01-19T14:25:36.416Z,97575.88
2023-01-19T14:28:40.791Z,97585.03
2023-01-19T14:31:21.617Z,97585.84
2023-01-19T14:33:51.057Z,97588.78
2023-01-19T14:36:39.302Z,97595.59
2023-01-19T14:39:17.096Z,97587.97
2023-01-19T14:41:49.047Z,97592.69
2023-01-19T14:44:26.577Z,97592.50
2023-01-19T14:46:53.547Z,97586.78
2023-01-19T14:49:36.779Z,97595.75
2023-01-19T14:52:07.251Z,97591.06
2023-01-19T14:54:38.985Z,97599.47
2023-01-19T14:57:10.760Z,97601.28
2023-01-19T14:59:37.204Z,97609.78
2023-01-19T15:02:03.755Z,97603.41
2023-01-19T15:04:30.260Z,97605.84
2023-01-19T15:06:56.773Z,97612.69
2023-01-19T15:09:23.466Z,97610.75
2023-01-19T15:11:50.446Z,97609.63
2023-01-19T15:14:20.360Z,97612.91
2023-01-19T15:16:47.720Z,97618.09
2023-01-19T15:19:16.933Z,97621.34
2023-01-19T15:21:45.171Z,97612.56
2023-01-19T15:24:13.035Z,97611.25
2023-01-19T15:26:42.118Z,97613.84
2023-01-19T15:29:21.003Z,97614.19
2023-01-19T15:31:47.671Z,97612.72
2023-01-19T15:34:14.603Z,97605.53
2023-01-19T15:36:42.102Z,97614.03
2023-01-19T15:39:10.532Z,97618.41
2023-01-19T15:41:39.413Z,97616.63
2023-01-19T15:44:07.051Z,97620.22
2023-01-19T15:46:33.866Z,97630.94
2023-01-19T15:49:00.317Z,97627.22
2023-01-19T15:51:27.628Z,97627.03
2023-01-19T15:53:54.885Z,97629.81
2023-01-19T15:56:24.618Z,97635.47
2023-01-19T15:58:52.318Z,97630.13
2023-01-19T16:01:31.390Z,97628.97
2023-01-19T16:04:01.402Z,97638.94
2023-01-19T16:06:28.676Z,97633.84
2023-01-19T16:08:59.677Z,97633.88
2023-01-19T16:11:27.404Z,97634.69
2023-01-19T16:13:54.058Z,97629.47
2023-01-19T16:16:23.597Z,97632.06
2023-01-19T16:18:50.783Z,97629.78
2023-01-19T16:21:17.643Z,97626.31
2023-01-19T16:23:44.214Z,97626.47
2023-01-19T16:26:26.668Z,97628.84
2023-01-19T16:28:56.402Z,97629.81
2023-01-19T16:31:23.054Z,97633.16
2023-01-19T16:33:49.514Z,97633.41
2023-01-19T16:36:31.201Z,97633.72
2023-01-19T16:39:03.317Z,97636.78
2023-01-19T16:41:29.755Z,97634.78
2023-01-19T16:43:57.866Z,97644.16
2023-01-19T16:46:30.355Z,97638.09
2023-01-19T16:49:02.305Z,97643.78
2023-01-19T16:51:29.001Z,97645.75
2023-01-19T16:53:55.466Z,97635.66
2023-01-19T16:56:22.092Z,97640.69
2023-01-19T16:58:48.567Z,97644.31
2023-01-19T17:01:19.898Z,97645.63
2023-01-19T17:03:47.028Z,97655.22
2023-01-19T17:06:18.198Z,97653.69
2023-01-19T17:08:44.967Z,97656.91
2023-01-19T17:11:23.161Z,97653.63
2023-01-19T17:13:53.953Z,97657.69
2023-01-19T17:16:21.490Z,97656.28
2023-01-19T17:18:48.031Z,97658.91
2023-01-19T17:21:17.823Z,97655.41
2023-01-19T17:23:50.103Z,97651.88
2023-01-19T17:26:17.470Z,97653.22
2023-01-19T17:28:44.309Z,97651.94
2023-01-19T17:31:17.131Z,97656.25
2023-01-19T17:33:45.454Z,97659.03
2023-01-19T17:36:15.416Z,97663.13
2023-01-19T17:38:42.112Z,97663.44
2023-01-19T17:41:12.428Z,97663.38
2023-01-19T17:43:38.868Z,97667.81
2023-01-19T17:46:05.882Z,97668.78
2023-01-19T17:48:32.403Z,97674.50
2023-01-19T17:51:03.576Z,97677.72
2023-01-19T17:53:30.041Z,97675.63
2023-01-19T17:56:02.792Z,97676.59
2023-01-19T17:58:30.874Z,97675.88
2023-01-19T18:00:57.905Z,97683.00
2023-01-19T18:03:24.757Z,97681.13
2023-01-19T18:05:57.441Z,97683.13
2023-01-19T18:08:23.881Z,97683.13
2023-01-19T18:10:58.805Z,97682.34
2023-01-19T18:13:26.022Z,97674.78
2023-01-19T18:15:57.881Z,97683.13
2023-01-19T18:18:24.363Z,97678.44
2023-01-19T18:20:50.804Z,97686.28
2023-01-19T18:23:17.576Z,97685.31
2023-01-19T18:25:44.144Z,97687.59
2023-01-19T18:28:10.619Z,97680.72
2023-01-19T18:30:37.704Z,97687.81
2023-01-19T18:33:04.449Z,97687.28
2023-01-19T18:35:30.861Z,97688.09
2023-01-19T18:37:58.485Z,97687.06
2023-01-19T18:40:25.524Z,97690.16
2023-01-19T18:42:52.094Z,97695.28
2023-01-19T18:45:18.545Z,97693.50
2023-01-19T18:47:44.995Z,97689.06
2023-01-19T18:50:13.972Z,97693.81
2023-01-19T18:52:40.609Z,97693.88
2023-01-19T18:55:07.395Z,97691.56
2023-01-19T18:57:35.278Z,97695.97
2023-01-19T19:00:02.891Z,97697.03
2023-01-19T19:02:29.662Z,97701.97
2023-01-19T19:04:56.282Z,97700.19
2023-01-19T19:07:22.846Z,97696.09
2023-01-19T19:09:49.351Z,97702.34
2023-01-19T19:12:15.897Z,97700.97
2023-01-19T19:14:42.457Z,97697.66
2023-01-19T19:17:08.934Z,97702.72
2023-01-19T19:19:35.516Z,97698.53
2023-01-19T19:22:01.958Z,97703.97
2023-01-19T19:24:28.451Z,97702.47
2023-01-19T19:26:55.181Z,97697.59
2023-01-19T19:29:21.708Z,97700.19
2023-01-19T19:31:48.230Z,97709.22
2023-01-19T19:34:14.763Z,97709.53
2023-01-19T19:36:41.989Z,97702.84
2023-01-19T19:39:08.484Z,97707.84
2023-01-19T19:41:37.176Z,97709.34
2023-01-19T19:44:03.768Z,97717.84
2023-01-19T19:46:30.343Z,97712.25
2023-01-19T19:48:56.904Z,97712.69
2023-01-19T19:51:26.992Z,97716.34
2023-01-19T19:53:59.203Z,97721.47
2023-01-19T19:56:27.978Z,97723.97
2023-01-19T19:58:55.981Z,97724.16
2023-01-19T20:01:27.598Z,97722.00
2023-01-19T20:03:54.732Z,97726.38
2023-01-19T20:06:24.763Z,97721.03
2023-01-19T20:08:54.290Z,97732.59
2023-01-19T20:11:26.099Z,97729.09
2023-01-19T20:13:52.811Z,97722.13
2023-01-19T20:16:21.822Z,97722.13
2023-01-19T20:18:54.246Z,97722.25
2023-01-19T20:21:26.560Z,97724.78
2023-01-19T20:23:54.652Z,97730.13
2023-01-19T20:26:25.138Z,97724.25
2023-01-19T20:28:52.188Z,97724.53
2023-01-19T20:31:30.283Z,97724.25
2023-01-19T20:34:02.025Z,97729.94
2023-01-19T20:36:32.008Z,97729.53
2023-01-19T20:38:59.365Z,97731.56
2023-01-19T20:41:27.074Z,97729.06
2023-01-19T20:43:53.906Z,97732.38
2023-01-19T20:46:20.446Z,97732.22
2023-01-19T20:48:50.805Z,97738.44
2023-01-19T20:51:18.757Z,97733.88
2023-01-19T20:53:45.652Z,97740.00
2023-01-19T20:56:14.385Z,97743.06
2023-01-19T20:58:41.348Z,97752.09
2023-01-19T21:01:13.567Z,97749.66
2023-01-19T21:03:40.681Z,97744.91
2023-01-19T21:06:10.394Z,97762.19
2023-01-19T21:08:39.260Z,97760.34
2023-01-19T21:15:45.002Z,97772.41
2023-01-19T21:18:11.514Z,97768.84
2023-01-19T21:20:38.136Z,97767.91
2023-01-19T21:23:04.751Z,97775.47
2023-01-19T21:25:31.343Z,97778.28
2023-01-19T21:28:00.134Z,97784.50
2023-01-19T21:30:26.766Z,97784.59
2023-01-19T21:32:55.288Z,97787.47
2023-01-19T21:35:21.801Z,97785.94
2023-01-19T21:37:48.404Z,97785.63
2023-01-19T21:40:15.139Z,97785.75
2023-01-19T21:42:47.415Z,97780.81
2023-01-19T21:45:14.316Z,97792.00
2023-01-19T21:47:41.094Z,97796.84
2023-01-19T21:50:08.009Z,97793.94
2023-01-19T21:52:34.499Z,97795.66
2023-01-19T21:55:01.012Z,97791.50
2023-01-19T21:57:27.575Z,97796.69
2023-01-19T21:59:54.174Z,97804.63
2023-01-19T22:02:37.158Z,97796.84
2023-01-19T22:05:06.564Z,97799.59
2023-01-19T22:07:33.146Z,97800.84
2023-01-19T22:10:02.462Z,97805.59
2023-01-19T22:12:29.029Z,97808.84
2023-01-19T22:14:55.582Z,97805.06
2023-01-19T22:17:22.317Z,97817.78
2023-01-19T22:19:48.917Z,97823.06
2023-01-19T22:22:15.371Z,97821.44
2023-01-19T22:24:46.501Z,97824.72
2023-01-19T22:27:13.447Z,97827.53
2023-01-19T22:29:39.963Z,97827.72
2023-01-19T22:32:06.948Z,97832.09
2023-01-19T22:34:33.855Z,97836.56
2023-01-19T22:37:01.091Z,97840.44
2023-01-19T22:39:27.833Z,97834.28
2023-01-19T22:41:54.302Z,97840.84
2023-01-19T22:44:22.823Z,97836.69
2023-01-19T22:46:53.538Z,97835.19
2023-01-19T22:49:20.134Z,97837.22
2023-01-19T22:51:47.004Z,97835.34
2023-01-19T22:54:13.980Z,97840.13
2023-01-19T22:56:41.061Z,97839.88
2023-01-19T22:59:07.960Z,97838.78
2023-01-19T23:01:40.610Z,97842.88
2023-01-19T23:04:11.489Z,97834.31
2023-01-19T23:06:38.613Z,97843.44
2023-01-19T23:09:09.703Z,97845.75
2023-01-19T23:11:38.712Z,97846.28
2023-01-19T23:14:07.391Z,97845.03
2023-01-19T23:16:34.718Z,97842.88
2023-01-19T23:19:01.483Z,97844.38
2023-01-19T23:21:31.446Z,97844.66
2023-01-19T23:24:03.274Z,97849.13
2023-01-19T23:26:34.116Z,97851.19
2023-01-19T23:29:01.855Z,97846.69
2023-01-19T23:31:36.697Z,97851.19
2023-01-19T23:34:06.289Z,97855.81
2023-01-19T23:36:34.757Z,97849.00
2023-01-19T23:39:05.883Z,97853.50
2023-01-19T23:41:36.686Z,97861.63
2023-01-19T23:44:03.581Z,97865.97
2023-01-19T23:46:30.234Z,97868.97
2023-01-19T23:48:57.331Z,97869.38
2023-01-19T23:51:26.366Z,97865.91
2023-01-19T23:53:53.355Z,97864.97
2023-01-19T23:56:25.432Z,97875.75
2023-01-19T23:58:56.517Z,97868.91
